National Weather Service Raw Text Product

Displaying AFOS PIL: TAFMCW Received: 2018-03-08 11:20 UTC


745 
FTUS43 KDMX 081120
TAFMCW
TAF
KMCW 081120Z 0812/0912 31011KT P6SM FEW100
     FM090200 VRB04KT P6SM SCT120=